Time;durP1;ratioP1;P1;durP2;ratioP2;P2;SDS_P1;SDS_P2;PMS_P1;PMS_P2;Temp;Humidity;BMP_temperature;BMP_pressure;BME280_temperature;BME280_humidity;BME280_pressure;Samples;Min_cycle;Max_cycle;Signal;HPM_P1;HPM_P2
2022/03/03 00:00:08;;;;;;;0.10;0.10;;;;;;;;;;5056811;28;20065;-64
2022/03/03 00:02:37;;;;;;;0.20;0.20;;;;;;;;;;5077867;28;20051;-64
2022/03/03 00:05:03;;;;;;;0.10;0.10;;;;;;;;;;5095466;28;20485;-64
2022/03/03 00:07:29;;;;;;;0.10;0.10;;;;;;;;;;5095307;28;20040;-64
2022/03/03 00:09:54;;;;;;;0.10;0.10;;;;;;;;;;5095291;28;20434;-65
2022/03/03 00:12:20;;;;;;;0.10;0.10;;;;;;;;;;5095039;28;20036;-64
2022/03/03 00:14:46;;;;;;;0.10;0.10;;;;;;;;;;5095134;28;20039;-66
2022/03/03 00:17:11;;;;;;;0.10;0.10;;;;;;;;;;5095144;28;20125;-66
2022/03/03 00:19:37;;;;;;;0.20;0.20;;;;;;;;;;5077146;28;20035;-66
2022/03/03 00:22:02;;;;;;;0.75;0.75;;;;;;;;;;5095214;28;20059;-66
2022/03/03 00:24:28;;;;;;;1.95;1.85;;;;;;;;;;5095223;28;20024;-66
2022/03/03 00:26:54;;;;;;;0.10;0.10;;;;;;;;;;5076787;28;20039;-66
2022/03/03 00:29:19;;;;;;;0.65;0.65;;;;;;;;;;5094835;28;20111;-65
2022/03/03 00:31:45;;;;;;;7.13;2.83;;;;;;;;;;5099893;28;20383;-65
2022/03/03 00:34:10;;;;;;;0.30;0.30;;;;;;;;;;5111726;28;20035;-65
2022/03/03 00:36:36;;;;;;;0.32;0.32;;;;;;;;;;5115143;28;20048;-63
2022/03/03 00:39:03;;;;;;;0.10;0.10;;;;;;;;;;5115169;28;20156;-63
2022/03/03 00:41:28;;;;;;;0.20;0.20;;;;;;;;;;5079976;28;20043;-64
2022/03/03 00:43:56;;;;;;;0.35;0.35;;;;;;;;;;5114927;28;20463;-63
2022/03/03 00:46:25;;;;;;;0.10;0.10;;;;;;;;;;5079976;28;20045;-63
2022/03/03 00:48:51;;;;;;;1.10;1.10;;;;;;;;;;5111794;28;20031;-63
2022/03/03 00:51:16;;;;;;;0.10;0.10;;;;;;;;;;5074295;28;20051;-63
2022/03/03 00:53:42;;;;;;;0.10;0.10;;;;;;;;;;5073875;28;20480;-63
2022/03/03 00:56:07;;;;;;;0.10;0.10;;;;;;;;;;5056269;28;20032;-64
2022/03/03 00:58:33;;;;;;;0.17;0.17;;;;;;;;;;5074284;28;20087;-64
2022/03/03 01:01:00;;;;;;;0.55;0.55;;;;;;;;;;5074587;28;20070;-63
2022/03/03 01:03:26;;;;;;;0.10;0.10;;;;;;;;;;5074460;28;20027;-63
2022/03/03 01:05:51;;;;;;;1.95;1.90;;;;;;;;;;5074290;28;20376;-63
2022/03/03 01:08:17;;;;;;;0.75;0.75;;;;;;;;;;5074361;28;20388;-63
2022/03/03 01:10:42;;;;;;;0.10;0.10;;;;;;;;;;5074196;28;20093;-63
2022/03/03 01:13:08;;;;;;;0.10;0.10;;;;;;;;;;5056019;28;20024;-63
2022/03/03 01:15:33;;;;;;;1.83;1.77;;;;;;;;;;5039557;28;20040;-63
2022/03/03 01:17:59;;;;;;;0.10;0.10;;;;;;;;;;5074086;28;20468;-62
2022/03/03 01:20:24;;;;;;;0.10;0.10;;;;;;;;;;5073909;28;20040;-63
2022/03/03 01:22:50;;;;;;;1.85;1.75;;;;;;;;;;5074021;28;20107;-63
2022/03/03 01:25:15;;;;;;;0.52;0.52;;;;;;;;;;5073883;28;20027;-63
2022/03/03 01:27:41;;;;;;;3.03;2.92;;;;;;;;;;5073916;28;20093;-64
2022/03/03 01:30:07;;;;;;;0.10;0.10;;;;;;;;;;5039523;28;20040;-63
2022/03/03 01:32:32;;;;;;;1.52;1.42;;;;;;;;;;5056037;28;20441;-64
2022/03/03 01:34:58;;;;;;;0.17;0.17;;;;;;;;;;5039104;28;20063;-62
2022/03/03 01:37:24;;;;;;;0.10;0.10;;;;;;;;;;5073800;28;20044;-64
2022/03/03 01:39:49;;;;;;;0.10;0.10;;;;;;;;;;5073689;28;20044;-64
2022/03/03 01:42:15;;;;;;;1.10;1.10;;;;;;;;;;5055753;28;20074;-64
2022/03/03 01:44:42;;;;;;;12.07;9.13;;;;;;;;;;5055800;28;20039;-64
2022/03/03 01:47:14;;;;;;;0.10;0.10;;;;;;;;;;5073664;28;20024;-64
2022/03/03 01:49:40;;;;;;;0.10;0.10;;;;;;;;;;5073718;28;20032;-63
2022/03/03 01:52:05;;;;;;;0.10;0.10;;;;;;;;;;5073529;28;20027;-63
2022/03/03 01:54:30;;;;;;;0.10;0.10;;;;;;;;;;5073702;28;20068;-64
2022/03/03 01:56:57;;;;;;;0.10;0.10;;;;;;;;;;5073200;28;20036;-63
2022/03/03 01:59:23;;;;;;;0.10;0.10;;;;;;;;;;5038949;28;20033;-65
2022/03/03 02:01:49;;;;;;;1.17;1.17;;;;;;;;;;5038961;28;20472;-64
2022/03/03 02:04:14;;;;;;;0.10;0.10;;;;;;;;;;5055454;28;20039;-63
2022/03/03 02:06:40;;;;;;;0.10;0.10;;;;;;;;;;5072346;28;20024;-64
2022/03/03 02:09:05;;;;;;;0.22;0.22;;;;;;;;;;5073249;28;20041;-64
2022/03/03 02:11:31;;;;;;;0.40;0.40;;;;;;;;;;5073213;28;20081;-65
2022/03/03 02:13:57;;;;;;;0.10;0.10;;;;;;;;;;5055289;28;20033;-64
2022/03/03 02:16:23;;;;;;;0.20;0.20;;;;;;;;;;5055054;28;20036;-65
2022/03/03 02:18:49;;;;;;;0.43;0.43;;;;;;;;;;5073341;28;20024;-64
2022/03/03 02:21:17;;;;;;;2.22;2.13;;;;;;;;;;5073144;28;20031;-64
2022/03/03 02:23:43;;;;;;;0.10;0.10;;;;;;;;;;5073189;28;20033;-65
2022/03/03 02:26:15;;;;;;;0.10;0.10;;;;;;;;;;5054657;28;20379;-65
2022/03/03 02:28:42;;;;;;;2.72;2.63;;;;;;;;;;5038402;28;20044;-64
2022/03/03 02:31:07;;;;;;;0.10;0.10;;;;;;;;;;5055056;28;20031;-64
2022/03/03 02:33:33;;;;;;;0.10;0.10;;;;;;;;;;5072932;28;20400;-66
2022/03/03 02:36:17;;;;;;;0.25;0.25;;;;;;;;;;5072809;28;20068;-65
2022/03/03 02:38:42;;;;;;;0.10;0.10;;;;;;;;;;5054778;28;20153;-65
2022/03/03 02:41:08;;;;;;;0.10;0.10;;;;;;;;;;5038112;28;20111;-63
2022/03/03 02:43:33;;;;;;;0.52;0.52;;;;;;;;;;5072828;28;20036;-66
2022/03/03 02:46:00;;;;;;;0.10;0.10;;;;;;;;;;5072983;28;20028;-65
2022/03/03 02:48:25;;;;;;;2.78;2.53;;;;;;;;;;5054962;28;20365;-65
2022/03/03 02:50:51;;;;;;;0.10;0.10;;;;;;;;;;5054807;28;20037;-65
2022/03/03 02:53:16;;;;;;;0.10;0.10;;;;;;;;;;5072560;28;20033;-66
2022/03/03 02:55:42;;;;;;;0.10;0.10;;;;;;;;;;5054525;28;20048;-66
2022/03/03 02:58:07;;;;;;;0.30;0.30;;;;;;;;;;5072620;28;20127;-66
2022/03/03 03:00:39;;;;;;;0.10;0.10;;;;;;;;;;5072460;28;20017;-67
2022/03/03 03:03:04;;;;;;;0.95;0.95;;;;;;;;;;5072568;28;20036;-65
2022/03/03 03:05:30;;;;;;;0.17;0.17;;;;;;;;;;5054462;28;20162;-65
2022/03/03 03:07:56;;;;;;;0.10;0.10;;;;;;;;;;5072065;28;20028;-67
2022/03/03 03:10:21;;;;;;;0.20;0.20;;;;;;;;;;5037770;28;20064;-65
2022/03/03 03:12:47;;;;;;;0.55;0.55;;;;;;;;;;5072196;28;20025;-65
2022/03/03 03:15:12;;;;;;;0.10;0.10;;;;;;;;;;5072479;28;20112;-65
2022/03/03 03:17:38;;;;;;;0.10;0.10;;;;;;;;;;5072019;28;20048;-65
2022/03/03 03:20:06;;;;;;;0.10;0.10;;;;;;;;;;5072227;28;20370;-65
2022/03/03 03:22:32;;;;;;;0.10;0.10;;;;;;;;;;5072247;28;20020;-66
2022/03/03 03:24:58;;;;;;;0.10;0.10;;;;;;;;;;5037556;28;20086;-65
2022/03/03 03:27:23;;;;;;;0.30;0.30;;;;;;;;;;5072415;28;20036;-66
2022/03/03 03:29:49;;;;;;;0.10;0.10;;;;;;;;;;5072191;28;20032;-65
2022/03/03 03:32:15;;;;;;;0.15;0.15;;;;;;;;;;5054118;28;20123;-65
2022/03/03 03:34:40;;;;;;;9.25;8.70;;;;;;;;;;5071840;28;20066;-66
2022/03/03 03:37:05;;;;;;;0.10;0.10;;;;;;;;;;5071951;28;20067;-65
2022/03/03 03:39:31;;;;;;;0.10;0.10;;;;;;;;;;5071790;28;20365;-66
2022/03/03 03:41:56;;;;;;;0.10;0.10;;;;;;;;;;5071842;28;20032;-66
2022/03/03 03:44:22;;;;;;;0.10;0.10;;;;;;;;;;5072183;28;20060;-66
2022/03/03 03:46:47;;;;;;;0.10;0.10;;;;;;;;;;5071842;28;20037;-64
2022/03/03 03:49:13;;;;;;;0.10;0.10;;;;;;;;;;5072076;28;20036;-65
2022/03/03 03:51:38;;;;;;;0.75;0.75;;;;;;;;;;5071917;28;20064;-65
2022/03/03 03:54:04;;;;;;;0.57;0.57;;;;;;;;;;5071651;28;20087;-65
2022/03/03 03:56:29;;;;;;;51.33;7.65;;;;;;;;;;5071626;28;20028;-64
2022/03/03 03:58:55;;;;;;;0.10;0.10;;;;;;;;;;5071731;28;20029;-65
2022/03/03 04:01:20;;;;;;;0.10;0.10;;;;;;;;;;5071863;28;20049;-65
2022/03/03 04:03:47;;;;;;;0.10;0.10;;;;;;;;;;5063739;28;20043;-65
2022/03/03 04:06:13;;;;;;;0.00;0.00;;;;;;;;;;5070286;28;20044;-65
2022/03/03 04:08:38;;;;;;;0.10;0.10;;;;;;;;;;5088103;28;20039;-66
2022/03/03 04:11:04;;;;;;;0.90;0.90;;;;;;;;;;5088212;28;20352;-65
2022/03/03 04:13:29;;;;;;;0.00;0.00;;;;;;;;;;5087959;28;20383;-65
2022/03/03 04:15:55;;;;;;;0.10;0.10;;;;;;;;;;5088076;28;20032;-65
2022/03/03 04:18:20;;;;;;;0.10;0.10;;;;;;;;;;5069708;28;20094;-64
2022/03/03 04:20:46;;;;;;;0.10;0.10;;;;;;;;;;5087864;28;20510;-64
2022/03/03 04:23:11;;;;;;;0.10;0.10;;;;;;;;;;5087912;28;20036;-66
2022/03/03 04:25:37;;;;;;;0.10;0.10;;;;;;;;;;5069655;28;20040;-64
2022/03/03 04:28:03;;;;;;;0.10;0.10;;;;;;;;;;5088167;28;20103;-66
2022/03/03 04:30:29;;;;;;;0.10;0.10;;;;;;;;;;5055784;28;20064;-64
2022/03/03 04:32:54;;;;;;;0.10;0.10;;;;;;;;;;5091495;28;20885;-64
2022/03/03 04:35:19;;;;;;;0.10;0.10;;;;;;;;;;5091073;28;20035;-71
2022/03/03 04:37:45;;;;;;;0.10;0.10;;;;;;;;;;5091146;28;20036;-64
2022/03/03 04:40:11;;;;;;;0.10;0.10;;;;;;;;;;5090859;28;20040;-64
2022/03/03 04:42:36;;;;;;;0.10;0.10;;;;;;;;;;5091262;28;20035;-64
2022/03/03 04:45:03;;;;;;;0.73;0.73;;;;;;;;;;5072802;28;20039;-64
2022/03/03 04:47:28;;;;;;;0.10;0.10;;;;;;;;;;5056101;28;20395;-64
2022/03/03 04:49:54;;;;;;;0.10;0.10;;;;;;;;;;5091049;28;20036;-65
2022/03/03 04:52:19;;;;;;;0.10;0.10;;;;;;;;;;5091022;28;20036;-64
2022/03/03 04:54:45;;;;;;;0.10;0.10;;;;;;;;;;5090930;28;20024;-64
2022/03/03 04:57:10;;;;;;;0.10;0.10;;;;;;;;;;5073279;28;20077;-64
2022/03/03 04:59:36;;;;;;;0.10;0.10;;;;;;;;;;5072746;28;20170;-64
2022/03/03 05:02:01;;;;;;;0.10;0.10;;;;;;;;;;5090654;28;20498;-64
2022/03/03 05:04:27;;;;;;;0.10;0.10;;;;;;;;;;5090603;28;20092;-65
2022/03/03 05:06:52;;;;;;;0.10;0.10;;;;;;;;;;5090738;28;20032;-66
2022/03/03 05:09:18;;;;;;;0.10;0.10;;;;;;;;;;5090714;28;20044;-64
2022/03/03 05:11:43;;;;;;;0.10;0.10;;;;;;;;;;5072427;28;20178;-65
2022/03/03 05:14:09;;;;;;;0.10;0.10;;;;;;;;;;5090415;28;20036;-64
2022/03/03 05:16:35;;;;;;;0.08;0.08;;;;;;;;;;5090108;28;20028;-65
2022/03/03 05:19:00;;;;;;;0.10;0.10;;;;;;;;;;5055548;28;20492;-68
2022/03/03 05:21:26;;;;;;;0.10;0.10;;;;;;;;;;5090567;28;20043;-64
2022/03/03 05:23:51;;;;;;;0.00;0.00;;;;;;;;;;5090523;28;20074;-68
2022/03/03 05:26:18;;;;;;;0.10;0.10;;;;;;;;;;5090037;28;20468;-65
2022/03/03 05:28:43;;;;;;;0.20;0.20;;;;;;;;;;5090944;28;20027;-64
2022/03/03 05:31:09;;;;;;;0.57;0.57;;;;;;;;;;5072341;28;20036;-63
2022/03/03 05:33:34;;;;;;;0.77;0.77;;;;;;;;;;5090543;28;20055;-64
2022/03/03 05:36:02;;;;;;;0.10;0.10;;;;;;;;;;5071951;28;20028;-64
2022/03/03 05:38:28;;;;;;;0.10;0.10;;;;;;;;;;5089660;28;20090;-65
2022/03/03 05:40:54;;;;;;;0.10;0.10;;;;;;;;;;5054132;28;20040;-65
2022/03/03 05:43:20;;;;;;;0.10;0.10;;;;;;;;;;5090152;28;20104;-65
2022/03/03 05:45:46;;;;;;;0.10;0.10;;;;;;;;;;5071821;28;20042;-67
2022/03/03 05:48:14;;;;;;;0.10;0.10;;;;;;;;;;5071973;28;20032;-63
2022/03/03 05:50:40;;;;;;;0.10;0.10;;;;;;;;;;5055466;28;20078;-64
2022/03/03 05:53:05;;;;;;;0.10;0.10;;;;;;;;;;5090023;28;20031;-65
2022/03/03 05:55:32;;;;;;;0.20;0.20;;;;;;;;;;5071689;28;20032;-62
2022/03/03 05:57:59;;;;;;;0.20;0.20;;;;;;;;;;5071504;28;20032;-64
2022/03/03 06:00:26;;;;;;;0.20;0.20;;;;;;;;;;5054829;28;20036;-67
2022/03/03 06:02:53;;;;;;;0.10;0.10;;;;;;;;;;5054884;28;20063;-65
2022/03/03 06:05:19;;;;;;;0.10;0.10;;;;;;;;;;5090103;28;20418;-64
2022/03/03 06:07:45;;;;;;;0.10;0.10;;;;;;;;;;5089711;28;20686;-64
2022/03/03 06:10:11;;;;;;;0.10;0.10;;;;;;;;;;5071369;28;20026;-65
2022/03/03 06:12:41;;;;;;;0.10;0.10;;;;;;;;;;5054810;28;20064;-65
2022/03/03 06:15:07;;;;;;;0.10;0.10;;;;;;;;;;5054607;28;20402;-64
2022/03/03 06:17:34;;;;;;;0.10;0.10;;;;;;;;;;5089856;28;20036;-65
2022/03/03 06:20:01;;;;;;;0.10;0.10;;;;;;;;;;5054730;28;20028;-66
2022/03/03 06:22:26;;;;;;;0.10;0.10;;;;;;;;;;5070765;28;20101;-65
2022/03/03 06:24:52;;;;;;;0.10;0.10;;;;;;;;;;5054591;28;20028;-66
2022/03/03 06:27:17;;;;;;;0.10;0.10;;;;;;;;;;5054618;28;20592;-64
2022/03/03 06:29:43;;;;;;;0.77;0.77;;;;;;;;;;5089736;28;20027;-65
2022/03/03 06:32:09;;;;;;;0.10;0.10;;;;;;;;;;5087522;28;20042;-67
2022/03/03 06:34:34;;;;;;;0.10;0.10;;;;;;;;;;5070630;28;20115;-66
2022/03/03 06:37:00;;;;;;;0.10;0.10;;;;;;;;;;5068715;28;20090;-69
2022/03/03 06:39:26;;;;;;;0.10;0.10;;;;;;;;;;5052943;28;20419;-67
2022/03/03 06:41:52;;;;;;;0.10;0.10;;;;;;;;;;5070291;28;20038;-68
2022/03/03 06:44:18;;;;;;;0.10;0.10;;;;;;;;;;5109407;28;20027;-73
2022/03/03 06:46:44;;;;;;;0.10;0.10;;;;;;;;;;5074481;28;20040;-73
2022/03/03 06:49:09;;;;;;;0.10;0.10;;;;;;;;;;5109855;28;20031;-65
2022/03/03 06:51:42;;;;;;;0.10;0.10;;;;;;;;;;5090834;28;20506;-68
2022/03/03 06:54:13;;;;;;;0.10;0.10;;;;;;;;;;5073940;28;20095;-67
2022/03/03 06:56:44;;;;;;;0.10;0.10;;;;;;;;;;5091528;28;20043;-72
2022/03/03 06:59:10;;;;;;;0.60;0.60;;;;;;;;;;5109600;28;20046;-66
2022/03/03 07:01:35;;;;;;;0.10;0.10;;;;;;;;;;5109364;28;20375;-67
2022/03/03 07:04:01;;;;;;;1.55;1.17;;;;;;;;;;5109433;28;20505;-66
2022/03/03 07:06:26;;;;;;;0.25;0.25;;;;;;;;;;5108684;28;20390;-66
2022/03/03 07:08:55;;;;;;;0.10;0.10;;;;;;;;;;5074072;28;20042;-66
2022/03/03 07:11:22;;;;;;;0.15;0.15;;;;;;;;;;5099184;28;20027;-66
2022/03/03 07:13:47;;;;;;;0.38;0.38;;;;;;;;;;5042836;28;20562;-66
2022/03/03 07:16:16;;;;;;;0.10;0.10;;;;;;;;;;5085943;28;20028;-66
2022/03/03 07:18:42;;;;;;;0.10;0.10;;;;;;;;;;5088558;28;20040;-66
2022/03/03 07:21:16;;;;;;;0.10;0.10;;;;;;;;;;5088548;28;20032;-66
2022/03/03 07:23:47;;;;;;;0.45;0.45;;;;;;;;;;5088680;28;20479;-67
2022/03/03 07:26:13;;;;;;;0.10;0.10;;;;;;;;;;5069784;28;20040;-69
2022/03/03 07:28:40;;;;;;;0.10;0.10;;;;;;;;;;5086217;28;20028;-69
2022/03/03 07:31:07;;;;;;;0.10;0.10;;;;;;;;;;5086211;28;20567;-69
2022/03/03 07:33:53;;;;;;;4.60;4.38;;;;;;;;;;5067746;28;20032;-69
2022/03/03 07:36:22;;;;;;;0.20;0.20;;;;;;;;;;5050793;28;20554;-69
2022/03/03 07:38:58;;;;;;;0.10;0.10;;;;;;;;;;5086094;28;20020;-69
2022/03/03 07:41:25;;;;;;;0.10;0.10;;;;;;;;;;5086752;28;20510;-70
2022/03/03 07:43:51;;;;;;;0.15;0.15;;;;;;;;;;5050529;28;20515;-69
2022/03/03 07:46:17;;;;;;;0.10;0.10;;;;;;;;;;5066487;28;20046;-69
2022/03/03 07:48:46;;;;;;;0.10;0.10;;;;;;;;;;5049878;28;20115;-69
2022/03/03 07:51:12;;;;;;;0.10;0.10;;;;;;;;;;5077324;28;20059;-70
2022/03/03 07:53:37;;;;;;;0.10;0.10;;;;;;;;;;5050929;28;20140;-69
2022/03/03 07:56:03;;;;;;;0.10;0.10;;;;;;;;;;5085924;28;20047;-68
2022/03/03 07:58:31;;;;;;;0.45;0.45;;;;;;;;;;5067157;28;20032;-69
2022/03/03 08:00:58;;;;;;;0.20;0.20;;;;;;;;;;5067526;28;20040;-70
2022/03/03 08:03:25;;;;;;;0.20;0.20;;;;;;;;;;5085122;28;20050;-69
2022/03/03 08:05:52;;;;;;;0.47;0.47;;;;;;;;;;5054323;28;20067;-69
2022/03/03 08:08:35;;;;;;;1.70;1.58;;;;;;;;;;5054019;28;20090;-69
2022/03/03 08:11:05;;;;;;;0.20;0.20;;;;;;;;;;5089382;28;20044;-69
2022/03/03 08:13:31;;;;;;;0.20;0.20;;;;;;;;;;5053810;28;20039;-70
2022/03/03 08:15:57;;;;;;;0.20;0.20;;;;;;;;;;5088284;28;20036;-69
2022/03/03 08:18:32;;;;;;;0.10;0.10;;;;;;;;;;5070939;28;20532;-69
2022/03/03 08:21:02;;;;;;;0.10;0.10;;;;;;;;;;5053733;28;20112;-69
2022/03/03 08:23:27;;;;;;;0.10;0.10;;;;;;;;;;5054554;28;20075;-69
2022/03/03 08:25:54;;;;;;;0.20;0.20;;;;;;;;;;5088999;28;20067;-69
2022/03/03 08:28:23;;;;;;;0.20;0.20;;;;;;;;;;5053348;28;20552;-69
2022/03/03 08:30:51;;;;;;;0.28;0.28;;;;;;;;;;5055429;28;20032;-69
2022/03/03 08:33:26;;;;;;;0.20;0.20;;;;;;;;;;5055249;28;20046;-69
2022/03/03 08:35:59;;;;;;;0.20;0.20;;;;;;;;;;5056230;28;20079;-69
2022/03/03 08:38:32;;;;;;;0.20;0.20;;;;;;;;;;5072712;28;20036;-69
2022/03/03 08:40:59;;;;;;;0.20;0.20;;;;;;;;;;5079672;28;20035;-69
2022/03/03 08:43:26;;;;;;;0.38;0.30;;;;;;;;;;5071991;28;20382;-69
2022/03/03 08:45:53;;;;;;;0.28;0.28;;;;;;;;;;5109052;28;20059;-70
2022/03/03 08:48:19;;;;;;;0.30;0.30;;;;;;;;;;5063928;28;20067;-70
2022/03/03 08:50:45;;;;;;;0.20;0.20;;;;;;;;;;5070047;28;20141;-70
2022/03/03 08:53:11;;;;;;;0.30;0.30;;;;;;;;;;5051694;28;20051;-70
2022/03/03 08:55:37;;;;;;;0.25;0.25;;;;;;;;;;5086598;28;20133;-70
2022/03/03 08:58:04;;;;;;;0.43;0.43;;;;;;;;;;5068476;28;20064;-69
2022/03/03 09:00:30;;;;;;;0.20;0.20;;;;;;;;;;5052253;28;20624;-68
2022/03/03 09:02:56;;;;;;;0.52;0.52;;;;;;;;;;5051695;28;20032;-69
2022/03/03 09:05:22;;;;;;;0.20;0.20;;;;;;;;;;5068681;28;20380;-69
2022/03/03 09:07:47;;;;;;;0.10;0.10;;;;;;;;;;5069386;28;20039;-68
2022/03/03 09:10:13;;;;;;;0.20;0.20;;;;;;;;;;5087554;28;20035;-68
2022/03/03 09:12:39;;;;;;;1.33;0.95;;;;;;;;;;5070298;28;20414;-69
2022/03/03 09:15:05;;;;;;;0.20;0.20;;;;;;;;;;5087498;28;20036;-69
2022/03/03 09:17:31;;;;;;;1.20;0.88;;;;;;;;;;5070229;28;20118;-69
2022/03/03 09:19:56;;;;;;;0.28;0.28;;;;;;;;;;5070090;28;20067;-69
2022/03/03 09:22:22;;;;;;;0.30;0.30;;;;;;;;;;5070154;28;20111;-70
2022/03/03 09:24:47;;;;;;;0.17;0.17;;;;;;;;;;5053394;28;20461;-70
2022/03/03 09:27:13;;;;;;;0.20;0.20;;;;;;;;;;5087721;28;20054;-70
2022/03/03 09:29:38;;;;;;;0.20;0.20;;;;;;;;;;5088146;28;20036;-69
2022/03/03 09:32:04;;;;;;;0.43;0.43;;;;;;;;;;5088306;28;20020;-69
2022/03/03 09:34:30;;;;;;;0.10;0.10;;;;;;;;;;5088218;28;20028;-69
2022/03/03 09:36:56;;;;;;;0.10;0.10;;;;;;;;;;5088174;28;20313;-69
2022/03/03 09:39:22;;;;;;;0.30;0.30;;;;;;;;;;5052817;28;20020;-69
2022/03/03 09:41:50;;;;;;;0.20;0.20;;;;;;;;;;5087364;28;20071;-69
2022/03/03 09:44:19;;;;;;;1.00;0.50;;;;;;;;;;5069294;28;20507;-69
2022/03/03 09:46:46;;;;;;;0.20;0.20;;;;;;;;;;5087887;28;20172;-69
2022/03/03 09:49:13;;;;;;;0.30;0.30;;;;;;;;;;5092150;28;20352;-69
2022/03/03 09:51:38;;;;;;;0.47;0.47;;;;;;;;;;5071678;28;20031;-69
2022/03/03 09:54:07;;;;;;;0.52;0.52;;;;;;;;;;5080695;28;20059;-69
2022/03/03 09:56:33;;;;;;;0.30;0.30;;;;;;;;;;5063142;28;20598;-69
2022/03/03 09:58:58;;;;;;;0.65;0.65;;;;;;;;;;5069121;28;20025;-70
2022/03/03 10:01:27;;;;;;;0.20;0.20;;;;;;;;;;5068524;28;20070;-69
2022/03/03 10:03:53;;;;;;;0.40;0.40;;;;;;;;;;5067872;28;20438;-69
2022/03/03 10:06:21;;;;;;;0.38;0.38;;;;;;;;;;5067545;28;20085;-68
2022/03/03 10:08:48;;;;;;;0.20;0.20;;;;;;;;;;5068128;28;20109;-71
2022/03/03 10:11:14;;;;;;;0.30;0.30;;;;;;;;;;5033915;28;20502;-66
2022/03/03 10:13:44;;;;;;;2.15;1.95;;;;;;;;;;5065258;28;20059;-70
2022/03/03 10:16:09;;;;;;;0.47;0.47;;;;;;;;;;5084206;28;20573;-68
2022/03/03 10:18:34;;;;;;;0.40;0.40;;;;;;;;;;5086122;28;20052;-69
2022/03/03 10:21:02;;;;;;;0.30;0.30;;;;;;;;;;5069057;28;20121;-70
2022/03/03 10:23:35;;;;;;;0.55;0.55;;;;;;;;;;5052388;28;20479;-69
2022/03/03 10:26:02;;;;;;;0.20;0.20;;;;;;;;;;5052108;28;20399;-70
2022/03/03 10:28:29;;;;;;;0.38;0.38;;;;;;;;;;5068525;28;20038;-69
2022/03/03 10:30:57;;;;;;;3.63;3.42;;;;;;;;;;5052313;28;20032;-69
2022/03/03 10:33:25;;;;;;;3.00;2.77;;;;;;;;;;5052991;28;20032;-69
2022/03/03 10:36:01;;;;;;;1.05;1.05;;;;;;;;;;5051994;28;20032;-69
2022/03/03 10:38:27;;;;;;;0.20;0.20;;;;;;;;;;5052280;28;20392;-69
2022/03/03 10:40:53;;;;;;;0.35;0.35;;;;;;;;;;5068617;28;20035;-69
2022/03/03 10:43:18;;;;;;;0.30;0.30;;;;;;;;;;5087070;28;20036;-71
2022/03/03 10:46:13;;;;;;;0.30;0.30;;;;;;;;;;5085993;28;20946;-71
2022/03/03 10:48:38;;;;;;;0.25;0.25;;;;;;;;;;5064992;28;20557;-70
2022/03/03 10:51:06;;;;;;;0.20;0.20;;;;;;;;;;5085437;28;20032;-70
2022/03/03 10:53:33;;;;;;;0.30;0.30;;;;;;;;;;5051141;28;20070;-70
2022/03/03 10:56:00;;;;;;;0.30;0.30;;;;;;;;;;5053481;28;20028;-70
2022/03/03 10:58:45;;;;;;;0.20;0.20;;;;;;;;;;5052967;28;20134;-70
2022/03/03 11:01:10;;;;;;;1.48;1.45;;;;;;;;;;5070587;28;20038;-70
2022/03/03 11:03:36;;;;;;;0.63;0.63;;;;;;;;;;5088789;28;20032;-70
2022/03/03 11:06:06;;;;;;;0.43;0.43;;;;;;;;;;5070521;28;20034;-69
2022/03/03 11:08:31;;;;;;;0.38;0.38;;;;;;;;;;5070836;28;20039;-70
2022/03/03 11:10:57;;;;;;;0.52;0.52;;;;;;;;;;5089017;28;20039;-70
2022/03/03 11:13:22;;;;;;;0.95;0.95;;;;;;;;;;5085688;28;20449;-70
2022/03/03 11:15:49;;;;;;;0.30;0.30;;;;;;;;;;5086311;28;20627;-69
2022/03/03 11:18:18;;;;;;;0.30;0.30;;;;;;;;;;5050989;28;20085;-69
2022/03/03 11:20:44;;;;;;;;;;;;;;;;;;5052479;28;20028;-70
2022/03/03 11:23:09;;;;;;;0.20;0.20;;;;;;;;;;5087470;28;20325;-71
2022/03/03 11:25:36;;;;;;;0.30;0.30;;;;;;;;;;5087280;28;20535;-74
2022/03/03 11:31:37;;;;;;;0.35;0.35;;;;;;;;;;5088074;28;20532;-62
2022/03/03 11:34:21;;;;;;;0.40;0.40;;;;;;;;;;5087214;28;20037;-68
2022/03/03 11:36:47;;;;;;;1.00;0.95;;;;;;;;;;5067215;28;20109;-70
2022/03/03 11:39:32;;;;;;;0.30;0.30;;;;;;;;;;5071304;28;20463;-70
2022/03/03 11:41:57;;;;;;;0.30;0.30;;;;;;;;;;5091256;28;20052;-70
2022/03/03 11:44:34;;;;;;;4.25;3.95;;;;;;;;;;5090119;28;20050;-71
2022/03/03 11:47:15;;;;;;;0.60;0.60;;;;;;;;;;5073500;28;20036;-70
2022/03/03 11:49:56;;;;;;;0.50;0.50;;;;;;;;;;5056356;28;20035;-70
2022/03/03 11:52:22;;;;;;;3.47;3.28;;;;;;;;;;5089832;28;20035;-70
2022/03/03 11:54:47;;;;;;;0.32;0.32;;;;;;;;;;5055129;28;20032;-70
2022/03/03 11:57:13;;;;;;;1.10;1.00;;;;;;;;;;5056229;28;20139;-70
2022/03/03 11:59:46;;;;;;;1.17;1.08;;;;;;;;;;5088827;28;20024;-72
2022/03/03 12:02:15;;;;;;;0.40;0.40;;;;;;;;;;5089525;28;20046;-70
2022/03/03 12:04:40;;;;;;;0.38;0.38;;;;;;;;;;5090868;28;20063;-71
2022/03/03 12:07:25;;;;;;;0.70;0.65;;;;;;;;;;5089673;28;20071;-72
2022/03/03 12:09:51;;;;;;;2.15;0.75;;;;;;;;;;5055652;28;20512;-71
2022/03/03 12:12:19;;;;;;;1.95;1.08;;;;;;;;;;5056177;28;20028;-70
2022/03/03 12:15:11;;;;;;;4.15;3.95;;;;;;;;;;5055006;28;20039;-70
2022/03/03 12:17:54;;;;;;;0.35;0.35;;;;;;;;;;5049683;28;20546;-70
2022/03/03 12:20:40;;;;;;;2.53;1.88;;;;;;;;;;5055052;28;20032;-72
2022/03/03 12:23:08;;;;;;;0.20;0.20;;;;;;;;;;5055072;28;20036;-69
2022/03/03 12:25:55;;;;;;;2.08;1.63;;;;;;;;;;5070339;28;20039;-69
2022/03/03 12:28:22;;;;;;;1.13;0.57;;;;;;;;;;5054203;28;20039;-70
2022/03/03 12:30:50;;;;;;;0.43;0.43;;;;;;;;;;5054426;28;20055;-71
2022/03/03 12:33:29;;;;;;;0.85;0.80;;;;;;;;;;5089206;28;20165;-68
2022/03/03 12:36:02;;;;;;;2.17;0.75;;;;;;;;;;5056689;28;20058;-71
2022/03/03 12:38:29;;;;;;;0.45;0.45;;;;;;;;;;5058823;28;20119;-68
2022/03/03 12:40:56;;;;;;;0.55;0.55;;;;;;;;;;5060999;28;20027;-71
2022/03/03 12:43:22;;;;;;;0.10;0.10;;;;;;;;;;5075091;28;20164;-72
2022/03/03 12:45:48;;;;;;;0.15;0.15;;;;;;;;;;5110331;28;20127;-69
2022/03/03 12:48:14;;;;;;;0.50;0.50;;;;;;;;;;5091271;28;20032;-71
2022/03/03 12:50:40;;;;;;;5.32;1.63;;;;;;;;;;5085200;28;20028;-71
2022/03/03 12:53:13;;;;;;;0.20;0.20;;;;;;;;;;5088559;28;20024;-69
2022/03/03 12:55:43;;;;;;;0.20;0.20;;;;;;;;;;5052874;28;20035;-69
2022/03/03 12:58:10;;;;;;;0.22;0.22;;;;;;;;;;5051410;28;20036;-72
2022/03/03 13:00:38;;;;;;;0.73;0.73;;;;;;;;;;5051730;28;20040;-69
2022/03/03 13:03:03;;;;;;;0.43;0.43;;;;;;;;;;5085682;28;20107;-70
2022/03/03 13:05:42;;;;;;;2.22;0.47;;;;;;;;;;5070953;28;20180;-70
2022/03/03 13:08:24;;;;;;;1.58;0.85;;;;;;;;;;5108353;28;20508;-70
2022/03/03 13:10:50;;;;;;;0.50;0.50;;;;;;;;;;5074096;28;20039;-70
2022/03/03 13:13:16;;;;;;;0.50;0.50;;;;;;;;;;5080037;28;20065;-70
2022/03/03 13:15:45;;;;;;;1.45;1.35;;;;;;;;;;5098670;28;20056;-71
2022/03/03 13:18:17;;;;;;;1.25;0.55;;;;;;;;;;5076736;28;20043;-71
2022/03/03 13:21:02;;;;;;;0.55;0.52;;;;;;;;;;5073597;28;20062;-70
2022/03/03 13:23:28;;;;;;;0.93;0.93;;;;;;;;;;5095273;28;20036;-71
2022/03/03 13:26:03;;;;;;;0.20;0.20;;;;;;;;;;5094193;28;20529;-71
2022/03/03 13:28:29;;;;;;;0.20;0.20;;;;;;;;;;5052190;28;20040;-71
2022/03/03 13:30:56;;;;;;;0.20;0.20;;;;;;;;;;5086334;28;20089;-70
2022/03/03 13:33:39;;;;;;;0.57;0.57;;;;;;;;;;5079044;28;20484;-71
2022/03/03 13:36:31;;;;;;;0.10;0.10;;;;;;;;;;5065688;28;20039;-70
2022/03/03 13:38:58;;;;;;;2.10;1.95;;;;;;;;;;5083506;28;20055;-71
2022/03/03 13:41:26;;;;;;;0.10;0.10;;;;;;;;;;5067736;28;20107;-71
2022/03/03 13:44:10;;;;;;;0.40;0.40;;;;;;;;;;5054215;28;20032;-72
2022/03/03 13:46:36;;;;;;;0.35;0.30;;;;;;;;;;5069433;28;20093;-71
2022/03/03 13:49:03;;;;;;;0.22;0.22;;;;;;;;;;5048156;28;20068;-70
2022/03/03 13:51:28;;;;;;;0.30;0.30;;;;;;;;;;5065806;28;20040;-71
2022/03/03 13:53:56;;;;;;;0.20;0.20;;;;;;;;;;5066534;28;20075;-70
2022/03/03 13:56:25;;;;;;;1.95;1.60;;;;;;;;;;5032526;28;20037;-70
2022/03/03 13:59:02;;;;;;;1.08;0.75;;;;;;;;;;5066935;28;20029;-71
2022/03/03 14:01:28;;;;;;;0.20;0.20;;;;;;;;;;5049373;28;20040;-68
2022/03/03 14:03:53;;;;;;;0.30;0.30;;;;;;;;;;5067231;28;20043;-69
2022/03/03 14:06:20;;;;;;;0.20;0.20;;;;;;;;;;5033613;28;20035;-69
2022/03/03 14:08:46;;;;;;;0.20;0.20;;;;;;;;;;5049931;28;20040;-72
2022/03/03 14:11:24;;;;;;;0.20;0.20;;;;;;;;;;5050800;28;20055;-69
2022/03/03 14:13:54;;;;;;;0.35;0.35;;;;;;;;;;5056687;28;20032;-69
2022/03/03 14:16:21;;;;;;;0.20;0.20;;;;;;;;;;5084702;28;20046;-71
2022/03/03 14:18:47;;;;;;;0.20;0.20;;;;;;;;;;5085719;28;20072;-69
2022/03/03 14:21:13;;;;;;;0.63;0.63;;;;;;;;;;5065954;28;20036;-69
2022/03/03 14:23:44;;;;;;;0.20;0.20;;;;;;;;;;5131744;27;20161;-74
2022/03/03 14:26:11;;;;;;;0.22;0.22;;;;;;;;;;5103280;28;20089;-71
2022/03/03 14:28:37;;;;;;;0.20;0.20;;;;;;;;;;5086478;28;20610;-70
2022/03/03 14:31:06;;;;;;;0.40;0.40;;;;;;;;;;5104033;28;20039;-70
2022/03/03 14:33:31;;;;;;;0.20;0.20;;;;;;;;;;5110407;28;20034;-71
2022/03/03 14:35:57;;;;;;;0.50;0.43;;;;;;;;;;5123838;27;20376;-72
2022/03/03 14:38:24;;;;;;;0.20;0.20;;;;;;;;;;5102784;28;20035;-71
2022/03/03 14:40:50;;;;;;;0.55;0.55;;;;;;;;;;5102758;28;20087;-71
2022/03/03 14:43:16;;;;;;;0.30;0.20;;;;;;;;;;5103309;28;20110;-72
2022/03/03 14:45:41;;;;;;;0.20;0.20;;;;;;;;;;5105210;28;20028;-72
2022/03/03 14:48:07;;;;;;;3.38;0.82;;;;;;;;;;5115591;28;20192;-72